sensor_id;sensor_type;location;lat;lon;timestamp;temperature;humidity
9179;DHT22;4624;48.126;11.546;2023-02-11T00:01:29;0.80;89.90
9179;DHT22;4624;48.126;11.546;2023-02-11T00:03:56;0.70;89.80
9179;DHT22;4624;48.126;11.546;2023-02-11T00:06:24;0.60;89.90
9179;DHT22;4624;48.126;11.546;2023-02-11T00:08:52;0.50;90.10
9179;DHT22;4624;48.126;11.546;2023-02-11T00:11:20;0.50;90.50
9179;DHT22;4624;48.126;11.546;2023-02-11T00:13:47;0.50;90.20
9179;DHT22;4624;48.126;11.546;2023-02-11T00:16:18;0.40;90.10
9179;DHT22;4624;48.126;11.546;2023-02-11T00:18:45;0.40;90.20
9179;DHT22;4624;48.126;11.546;2023-02-11T00:21:14;0.40;90.20
9179;DHT22;4624;48.126;11.546;2023-02-11T00:23:41;0.40;90.30
9179;DHT22;4624;48.126;11.546;2023-02-11T00:26:11;0.40;90.30
9179;DHT22;4624;48.126;11.546;2023-02-11T00:28:38;0.50;90.40
9179;DHT22;4624;48.126;11.546;2023-02-11T00:31:05;0.50;90.40
9179;DHT22;4624;48.126;11.546;2023-02-11T00:33:33;0.40;90.40
9179;DHT22;4624;48.126;11.546;2023-02-11T00:36:03;0.40;90.40
9179;DHT22;4624;48.126;11.546;2023-02-11T00:38:30;0.40;90.50
9179;DHT22;4624;48.126;11.546;2023-02-11T00:40:57;0.30;90.50
9179;DHT22;4624;48.126;11.546;2023-02-11T00:43:24;0.30;90.50
9179;DHT22;4624;48.126;11.546;2023-02-11T00:45:50;0.30;90.60
9179;DHT22;4624;48.126;11.546;2023-02-11T00:48:17;0.20;90.60
9179;DHT22;4624;48.126;11.546;2023-02-11T00:50:45;0.20;90.60
9179;DHT22;4624;48.126;11.546;2023-02-11T00:53:12;0.10;90.70
9179;DHT22;4624;48.126;11.546;2023-02-11T00:55:39;0.10;90.80
9179;DHT22;4624;48.126;11.546;2023-02-11T00:58:05;0.10;90.90
9179;DHT22;4624;48.126;11.546;2023-02-11T01:00:32;0.00;90.80
9179;DHT22;4624;48.126;11.546;2023-02-11T01:02:59;0.00;90.90
9179;DHT22;4624;48.126;11.546;2023-02-11T01:05:26;-0.10;90.90
9179;DHT22;4624;48.126;11.546;2023-02-11T01:07:54;-0.10;91.00
9179;DHT22;4624;48.126;11.546;2023-02-11T01:10:21;-0.10;91.10
9179;DHT22;4624;48.126;11.546;2023-02-11T01:12:48;-0.10;91.10
9179;DHT22;4624;48.126;11.546;2023-02-11T01:15:16;-0.20;91.20
9179;DHT22;4624;48.126;11.546;2023-02-11T01:17:43;-0.10;91.30
9179;DHT22;4624;48.126;11.546;2023-02-11T01:20:14;-0.10;91.40
9179;DHT22;4624;48.126;11.546;2023-02-11T01:22:41;-0.20;91.40
9179;DHT22;4624;48.126;11.546;2023-02-11T01:25:10;-0.20;91.50
9179;DHT22;4624;48.126;11.546;2023-02-11T01:27:36;-0.20;91.60
9179;DHT22;4624;48.126;11.546;2023-02-11T01:30:06;-0.20;91.60
9179;DHT22;4624;48.126;11.546;2023-02-11T01:32:33;-0.10;91.60
9179;DHT22;4624;48.126;11.546;2023-02-11T01:35:00;-0.10;91.60
9179;DHT22;4624;48.126;11.546;2023-02-11T01:37:27;-0.10;91.50
9179;DHT22;4624;48.126;11.546;2023-02-11T01:39:54;-0.10;91.60
9179;DHT22;4624;48.126;11.546;2023-02-11T01:42:22;0.00;91.60
9179;DHT22;4624;48.126;11.546;2023-02-11T01:44:50;0.00;91.70
9179;DHT22;4624;48.126;11.546;2023-02-11T01:47:18;-0.10;91.60
9179;DHT22;4624;48.126;11.546;2023-02-11T01:49:49;-0.10;91.60
9179;DHT22;4624;48.126;11.546;2023-02-11T01:52:21;-0.10;91.60
9179;DHT22;4624;48.126;11.546;2023-02-11T01:54:51;-0.10;91.60
9179;DHT22;4624;48.126;11.546;2023-02-11T01:57:39;-0.10;91.60
9179;DHT22;4624;48.126;11.546;2023-02-11T02:00:10;-0.10;91.60
9179;DHT22;4624;48.126;11.546;2023-02-11T02:02:43;-0.20;91.50
9179;DHT22;4624;48.126;11.546;2023-02-11T02:05:19;-0.20;91.60
9179;DHT22;4624;48.126;11.546;2023-02-11T02:08:02;-0.20;91.60
9179;DHT22;4624;48.126;11.546;2023-02-11T02:10:30;-0.10;91.70
9179;DHT22;4624;48.126;11.546;2023-02-11T02:13:00;-0.10;91.60
9179;DHT22;4624;48.126;11.546;2023-02-11T02:15:29;-0.10;91.60
9179;DHT22;4624;48.126;11.546;2023-02-11T02:18:05;-0.20;91.50
9179;DHT22;4624;48.126;11.546;2023-02-11T02:20:55;-0.20;91.60
9179;DHT22;4624;48.126;11.546;2023-02-11T02:23:40;-0.20;92.00
9179;DHT22;4624;48.126;11.546;2023-02-11T02:32:26;-0.30;91.60
9179;DHT22;4624;48.126;11.546;2023-02-11T02:35:01;-0.30;91.70
9179;DHT22;4624;48.126;11.546;2023-02-11T02:37:32;-0.30;91.70
9179;DHT22;4624;48.126;11.546;2023-02-11T02:40:03;-0.30;91.80
9179;DHT22;4624;48.126;11.546;2023-02-11T02:42:33;-0.30;91.90
9179;DHT22;4624;48.126;11.546;2023-02-11T02:44:59;-0.30;91.90
9179;DHT22;4624;48.126;11.546;2023-02-11T02:47:28;-0.30;91.90
9179;DHT22;4624;48.126;11.546;2023-02-11T02:49:54;-0.30;91.90
9179;DHT22;4624;48.126;11.546;2023-02-11T02:52:31;-0.20;91.90
9179;DHT22;4624;48.126;11.546;2023-02-11T02:55:15;-0.30;91.90
9179;DHT22;4624;48.126;11.546;2023-02-11T02:58:10;-0.20;91.90
9179;DHT22;4624;48.126;11.546;2023-02-11T03:00:43;-0.20;91.90
9179;DHT22;4624;48.126;11.546;2023-02-11T03:03:22;-0.30;91.90
9179;DHT22;4624;48.126;11.546;2023-02-11T03:05:57;-0.40;91.80
9179;DHT22;4624;48.126;11.546;2023-02-11T03:08:31;-0.50;91.80
9179;DHT22;4624;48.126;11.546;2023-02-11T03:11:00;-0.50;91.80
9179;DHT22;4624;48.126;11.546;2023-02-11T03:13:31;-0.50;91.80
9179;DHT22;4624;48.126;11.546;2023-02-11T03:16:03;-0.60;91.90
9179;DHT22;4624;48.126;11.546;2023-02-11T03:18:35;-0.60;91.90
9179;DHT22;4624;48.126;11.546;2023-02-11T03:21:04;-0.60;92.00
9179;DHT22;4624;48.126;11.546;2023-02-11T03:23:36;-0.60;92.00
9179;DHT22;4624;48.126;11.546;2023-02-11T03:26:13;-0.60;92.00
9179;DHT22;4624;48.126;11.546;2023-02-11T03:28:44;-0.60;92.00
9179;DHT22;4624;48.126;11.546;2023-02-11T03:31:19;-0.60;92.00
9179;DHT22;4624;48.126;11.546;2023-02-11T03:33:54;-0.60;92.00
9179;DHT22;4624;48.126;11.546;2023-02-11T03:36:27;-0.60;91.90
9179;DHT22;4624;48.126;11.546;2023-02-11T03:38:59;-0.50;92.00
9179;DHT22;4624;48.126;11.546;2023-02-11T03:41:27;-0.50;92.00
9179;DHT22;4624;48.126;11.546;2023-02-11T03:43:57;-0.50;91.90
9179;DHT22;4624;48.126;11.546;2023-02-11T03:46:29;-0.50;91.90
9179;DHT22;4624;48.126;11.546;2023-02-11T03:49:03;-0.50;92.20
9179;DHT22;4624;48.126;11.546;2023-02-11T03:51:31;-0.50;91.80
9179;DHT22;4624;48.126;11.546;2023-02-11T03:54:01;-0.50;91.80
9179;DHT22;4624;48.126;11.546;2023-02-11T03:56:34;-0.50;91.80
9179;DHT22;4624;48.126;11.546;2023-02-11T03:59:03;-0.50;91.80
9179;DHT22;4624;48.126;11.546;2023-02-11T04:01:30;-0.50;91.80
9179;DHT22;4624;48.126;11.546;2023-02-11T04:03:56;-0.40;91.80
9179;DHT22;4624;48.126;11.546;2023-02-11T04:06:24;-0.40;91.80
9179;DHT22;4624;48.126;11.546;2023-02-11T04:08:51;-0.40;91.80
9179;DHT22;4624;48.126;11.546;2023-02-11T04:11:18;-0.50;91.70
9179;DHT22;4624;48.126;11.546;2023-02-11T04:13:45;-0.50;91.60
9179;DHT22;4624;48.126;11.546;2023-02-11T04:16:11;-0.60;91.50
9179;DHT22;4624;48.126;11.546;2023-02-11T04:18:38;-0.60;91.50
9179;DHT22;4624;48.126;11.546;2023-02-11T04:21:05;-0.60;91.50
9179;DHT22;4624;48.126;11.546;2023-02-11T04:23:33;-0.60;91.50
9179;DHT22;4624;48.126;11.546;2023-02-11T04:26:00;-0.50;91.60
9179;DHT22;4624;48.126;11.546;2023-02-11T04:28:26;-0.50;91.50
9179;DHT22;4624;48.126;11.546;2023-02-11T04:30:54;-0.50;91.50
9179;DHT22;4624;48.126;11.546;2023-02-11T04:33:21;-0.50;91.50
9179;DHT22;4624;48.126;11.546;2023-02-11T04:35:47;-0.50;91.40
9179;DHT22;4624;48.126;11.546;2023-02-11T04:38:15;-0.50;91.50
9179;DHT22;4624;48.126;11.546;2023-02-11T04:40:44;-0.50;91.50
9179;DHT22;4624;48.126;11.546;2023-02-11T04:43:10;-0.40;91.50
9179;DHT22;4624;48.126;11.546;2023-02-11T04:45:37;-0.50;91.50
9179;DHT22;4624;48.126;11.546;2023-02-11T04:48:04;-0.50;91.40
9179;DHT22;4624;48.126;11.546;2023-02-11T04:50:31;-0.40;91.50
9179;DHT22;4624;48.126;11.546;2023-02-11T04:52:57;-0.40;91.40
9179;DHT22;4624;48.126;11.546;2023-02-11T04:55:24;-0.50;91.40
9179;DHT22;4624;48.126;11.546;2023-02-11T04:57:52;-0.50;91.40
9179;DHT22;4624;48.126;11.546;2023-02-11T05:00:20;-0.40;91.50
9179;DHT22;4624;48.126;11.546;2023-02-11T05:02:46;-0.40;91.80
9179;DHT22;4624;48.126;11.546;2023-02-11T05:05:13;-0.40;91.50
9179;DHT22;4624;48.126;11.546;2023-02-11T05:07:40;-0.40;91.40
9179;DHT22;4624;48.126;11.546;2023-02-11T05:10:07;-0.40;91.40
9179;DHT22;4624;48.126;11.546;2023-02-11T05:12:34;-0.40;91.40
9179;DHT22;4624;48.126;11.546;2023-02-11T05:15:02;-0.40;91.40
9179;DHT22;4624;48.126;11.546;2023-02-11T05:17:29;-0.50;91.30
9179;DHT22;4624;48.126;11.546;2023-02-11T05:19:55;-0.60;91.30
9179;DHT22;4624;48.126;11.546;2023-02-11T05:22:22;-0.60;91.40
9179;DHT22;4624;48.126;11.546;2023-02-11T05:24:49;-0.60;91.50
9179;DHT22;4624;48.126;11.546;2023-02-11T05:27:16;-0.60;91.60
9179;DHT22;4624;48.126;11.546;2023-02-11T05:29:42;-0.60;91.70
9179;DHT22;4624;48.126;11.546;2023-02-11T05:32:10;-0.60;91.70
9179;DHT22;4624;48.126;11.546;2023-02-11T05:34:37;-0.60;91.70
9179;DHT22;4624;48.126;11.546;2023-02-11T05:37:04;-0.60;91.80
9179;DHT22;4624;48.126;11.546;2023-02-11T05:39:31;-0.50;91.80
9179;DHT22;4624;48.126;11.546;2023-02-11T05:41:58;-0.50;91.80
9179;DHT22;4624;48.126;11.546;2023-02-11T05:44:24;-0.40;91.80
9179;DHT22;4624;48.126;11.546;2023-02-11T05:46:51;-0.40;91.80
9179;DHT22;4624;48.126;11.546;2023-02-11T05:49:19;-0.40;91.80
9179;DHT22;4624;48.126;11.546;2023-02-11T05:51:46;-0.40;92.00
9179;DHT22;4624;48.126;11.546;2023-02-11T05:54:13;-0.40;92.00
9179;DHT22;4624;48.126;11.546;2023-02-11T05:56:40;-0.40;92.10
9179;DHT22;4624;48.126;11.546;2023-02-11T05:59:07;-0.40;92.00
9179;DHT22;4624;48.126;11.546;2023-02-11T06:01:34;-0.40;92.10
9179;DHT22;4624;48.126;11.546;2023-02-11T06:04:01;-0.40;92.10
9179;DHT22;4624;48.126;11.546;2023-02-11T06:06:30;-0.40;92.20
9179;DHT22;4624;48.126;11.546;2023-02-11T06:08:57;-0.30;92.20
9179;DHT22;4624;48.126;11.546;2023-02-11T06:11:24;-0.30;92.20
9179;DHT22;4624;48.126;11.546;2023-02-11T06:13:51;-0.30;92.20
9179;DHT22;4624;48.126;11.546;2023-02-11T06:16:17;-0.30;92.30
9179;DHT22;4624;48.126;11.546;2023-02-11T06:18:44;-0.30;92.30
9179;DHT22;4624;48.126;11.546;2023-02-11T06:21:11;-0.30;92.40
9179;DHT22;4624;48.126;11.546;2023-02-11T06:23:39;-0.20;92.40
9179;DHT22;4624;48.126;11.546;2023-02-11T06:26:07;-0.20;92.40
9179;DHT22;4624;48.126;11.546;2023-02-11T06:28:34;-0.20;92.40
9179;DHT22;4624;48.126;11.546;2023-02-11T06:31:04;-0.20;92.40
9179;DHT22;4624;48.126;11.546;2023-02-11T06:33:31;-0.20;92.40
9179;DHT22;4624;48.126;11.546;2023-02-11T06:35:58;-0.10;92.40
9179;DHT22;4624;48.126;11.546;2023-02-11T06:38:25;-0.10;92.30
9179;DHT22;4624;48.126;11.546;2023-02-11T06:40:53;0.00;92.30
9179;DHT22;4624;48.126;11.546;2023-02-11T06:43:20;0.00;92.60
9179;DHT22;4624;48.126;11.546;2023-02-11T06:45:51;0.10;92.10
9179;DHT22;4624;48.126;11.546;2023-02-11T06:48:18;0.10;92.10
9179;DHT22;4624;48.126;11.546;2023-02-11T06:50:45;0.10;92.10
9179;DHT22;4624;48.126;11.546;2023-02-11T06:53:12;0.20;92.10
9179;DHT22;4624;48.126;11.546;2023-02-11T06:55:38;0.20;91.90
9179;DHT22;4624;48.126;11.546;2023-02-11T06:58:06;0.30;91.80
9179;DHT22;4624;48.126;11.546;2023-02-11T07:00:33;0.30;91.60
9179;DHT22;4624;48.126;11.546;2023-02-11T07:03:00;0.40;91.50
9179;DHT22;4624;48.126;11.546;2023-02-11T07:05:27;0.50;91.40
9179;DHT22;4624;48.126;11.546;2023-02-11T07:07:53;0.50;91.20
9179;DHT22;4624;48.126;11.546;2023-02-11T07:10:20;0.60;91.10
9179;DHT22;4624;48.126;11.546;2023-02-11T07:12:47;0.70;91.10
9179;DHT22;4624;48.126;11.546;2023-02-11T07:15:15;0.70;91.10
9179;DHT22;4624;48.126;11.546;2023-02-11T07:17:42;0.80;91.10
9179;DHT22;4624;48.126;11.546;2023-02-11T07:20:09;0.90;90.90
9179;DHT22;4624;48.126;11.546;2023-02-11T07:22:39;0.90;90.80
9179;DHT22;4624;48.126;11.546;2023-02-11T07:25:06;1.00;90.60
9179;DHT22;4624;48.126;11.546;2023-02-11T07:27:32;1.00;90.20
9179;DHT22;4624;48.126;11.546;2023-02-11T07:29:59;0.90;90.00
9179;DHT22;4624;48.126;11.546;2023-02-11T07:32:27;0.90;89.80
9179;DHT22;4624;48.126;11.546;2023-02-11T07:34:54;0.90;89.50
9179;DHT22;4624;48.126;11.546;2023-02-11T07:37:21;0.90;89.20
9179;DHT22;4624;48.126;11.546;2023-02-11T07:39:47;0.90;88.90
9179;DHT22;4624;48.126;11.546;2023-02-11T07:42:14;0.90;88.70
9179;DHT22;4624;48.126;11.546;2023-02-11T07:44:41;1.00;88.60
9179;DHT22;4624;48.126;11.546;2023-02-11T07:47:08;1.00;88.60
9179;DHT22;4624;48.126;11.546;2023-02-11T07:49:36;1.00;88.30
9179;DHT22;4624;48.126;11.546;2023-02-11T07:52:02;1.10;88.40
9179;DHT22;4624;48.126;11.546;2023-02-11T07:54:29;1.20;88.20
9179;DHT22;4624;48.126;11.546;2023-02-11T07:56:56;1.20;88.20
9179;DHT22;4624;48.126;11.546;2023-02-11T07:59:23;1.30;88.20
9179;DHT22;4624;48.126;11.546;2023-02-11T08:01:50;1.30;88.20
9179;DHT22;4624;48.126;11.546;2023-02-11T08:04:16;1.40;88.30
9179;DHT22;4624;48.126;11.546;2023-02-11T08:06:45;1.50;88.30
9179;DHT22;4624;48.126;11.546;2023-02-11T08:09:14;1.50;87.90
9179;DHT22;4624;48.126;11.546;2023-02-11T08:11:42;1.50;87.70
9179;DHT22;4624;48.126;11.546;2023-02-11T08:14:09;1.70;87.60
9179;DHT22;4624;48.126;11.546;2023-02-11T08:16:36;1.70;87.00
9179;DHT22;4624;48.126;11.546;2023-02-11T08:19:05;1.70;86.60
9179;DHT22;4624;48.126;11.546;2023-02-11T08:21:32;1.80;86.50
9179;DHT22;4624;48.126;11.546;2023-02-11T08:24:01;1.90;86.20
9179;DHT22;4624;48.126;11.546;2023-02-11T08:26:29;1.90;85.70
9179;DHT22;4624;48.126;11.546;2023-02-11T08:29:00;2.00;85.60
9179;DHT22;4624;48.126;11.546;2023-02-11T08:31:28;2.10;85.00
9179;DHT22;4624;48.126;11.546;2023-02-11T08:33:55;2.30;84.80
9179;DHT22;4624;48.126;11.546;2023-02-11T08:36:25;2.40;84.10
9179;DHT22;4624;48.126;11.546;2023-02-11T08:38:53;2.40;83.30
9179;DHT22;4624;48.126;11.546;2023-02-11T08:41:22;2.40;83.30
9179;DHT22;4624;48.126;11.546;2023-02-11T08:43:48;2.50;83.30
9179;DHT22;4624;48.126;11.546;2023-02-11T08:46:17;2.50;83.20
9179;DHT22;4624;48.126;11.546;2023-02-11T08:48:45;2.50;83.10
9179;DHT22;4624;48.126;11.546;2023-02-11T08:51:15;2.60;83.90
9179;DHT22;4624;48.126;11.546;2023-02-11T08:53:42;2.70;83.10
9179;DHT22;4624;48.126;11.546;2023-02-11T08:56:09;2.80;83.00
9179;DHT22;4624;48.126;11.546;2023-02-11T08:58:37;2.80;82.80
9179;DHT22;4624;48.126;11.546;2023-02-11T09:01:08;2.80;82.70
9179;DHT22;4624;48.126;11.546;2023-02-11T09:03:35;2.80;82.70
9179;DHT22;4624;48.126;11.546;2023-02-11T09:06:04;2.80;82.50
9179;DHT22;4624;48.126;11.546;2023-02-11T09:08:33;2.90;82.60
9179;DHT22;4624;48.126;11.546;2023-02-11T09:11:00;3.00;82.60
9179;DHT22;4624;48.126;11.546;2023-02-11T09:13:27;3.00;82.40
9179;DHT22;4624;48.126;11.546;2023-02-11T09:15:55;3.10;82.30
9179;DHT22;4624;48.126;11.546;2023-02-11T09:18:22;3.10;82.60
9179;DHT22;4624;48.126;11.546;2023-02-11T09:20:48;3.20;82.60
9179;DHT22;4624;48.126;11.546;2023-02-11T09:23:15;3.20;82.40
9179;DHT22;4624;48.126;11.546;2023-02-11T09:25:42;3.20;82.10
9179;DHT22;4624;48.126;11.546;2023-02-11T09:28:09;3.30;82.10
9179;DHT22;4624;48.126;11.546;2023-02-11T09:30:37;3.30;81.40
9179;DHT22;4624;48.126;11.546;2023-02-11T09:33:05;3.40;81.50
9179;DHT22;4624;48.126;11.546;2023-02-11T09:35:32;3.40;81.20
9179;DHT22;4624;48.126;11.546;2023-02-11T09:37:59;3.50;81.10
9179;DHT22;4624;48.126;11.546;2023-02-11T09:40:26;3.60;81.20
9179;DHT22;4624;48.126;11.546;2023-02-11T09:42:56;3.70;81.10
9179;DHT22;4624;48.126;11.546;2023-02-11T09:45:28;3.70;80.70
9179;DHT22;4624;48.126;11.546;2023-02-11T09:47:58;3.80;80.60
9179;DHT22;4624;48.126;11.546;2023-02-11T09:50:29;3.90;80.50
9179;DHT22;4624;48.126;11.546;2023-02-11T09:53:00;4.10;80.00
9179;DHT22;4624;48.126;11.546;2023-02-11T09:55:30;4.10;79.80
9179;DHT22;4624;48.126;11.546;2023-02-11T09:58:00;4.30;80.00
9179;DHT22;4624;48.126;11.546;2023-02-11T10:00:33;5.10;79.60
9179;DHT22;4624;48.126;11.546;2023-02-11T10:03:26;6.90;78.70
9179;DHT22;4624;48.126;11.546;2023-02-11T10:06:17;9.20;75.90
9179;DHT22;4624;48.126;11.546;2023-02-11T10:08:55;10.40;70.20
9179;DHT22;4624;48.126;11.546;2023-02-11T10:11:30;10.60;65.90
9179;DHT22;4624;48.126;11.546;2023-02-11T10:14:11;9.80;65.20
9179;DHT22;4624;48.126;11.546;2023-02-11T10:16:51;9.10;65.10
9179;DHT22;4624;48.126;11.546;2023-02-11T10:19:34;8.50;64.50
9179;DHT22;4624;48.126;11.546;2023-02-11T10:22:11;7.90;64.50
9179;DHT22;4624;48.126;11.546;2023-02-11T10:24:40;7.40;64.00
9179;DHT22;4624;48.126;11.546;2023-02-11T10:27:16;7.00;64.50
9179;DHT22;4624;48.126;11.546;2023-02-11T10:29:48;6.90;65.30
9179;DHT22;4624;48.126;11.546;2023-02-11T10:32:26;7.20;65.20
9179;DHT22;4624;48.126;11.546;2023-02-11T10:34:59;7.70;64.70
9179;DHT22;4624;48.126;11.546;2023-02-11T10:37:28;7.70;64.60
9179;DHT22;4624;48.126;11.546;2023-02-11T10:39:55;7.60;64.40
9179;DHT22;4624;48.126;11.546;2023-02-11T10:42:22;7.70;64.10
9179;DHT22;4624;48.126;11.546;2023-02-11T10:44:56;7.80;63.80
9179;DHT22;4624;48.126;11.546;2023-02-11T10:47:26;8.00;63.60
9179;DHT22;4624;48.126;11.546;2023-02-11T10:49:54;8.40;63.40
9179;DHT22;4624;48.126;11.546;2023-02-11T10:52:29;8.60;62.90
9179;DHT22;4624;48.126;11.546;2023-02-11T10:54:59;8.80;62.80
9179;DHT22;4624;48.126;11.546;2023-02-11T10:57:29;8.70;62.20
9179;DHT22;4624;48.126;11.546;2023-02-11T10:59:58;8.90;61.90
9179;DHT22;4624;48.126;11.546;2023-02-11T11:02:29;9.10;61.60
9179;DHT22;4624;48.126;11.546;2023-02-11T11:05:00;9.00;62.00
9179;DHT22;4624;48.126;11.546;2023-02-11T11:07:30;8.80;61.00
9179;DHT22;4624;48.126;11.546;2023-02-11T11:10:01;8.70;60.90
9179;DHT22;4624;48.126;11.546;2023-02-11T11:12:34;8.80;60.80
9179;DHT22;4624;48.126;11.546;2023-02-11T11:15:14;8.50;59.80
9179;DHT22;4624;48.126;11.546;2023-02-11T11:17:43;8.20;59.70
9179;DHT22;4624;48.126;11.546;2023-02-11T11:20:18;7.90;59.50
9179;DHT22;4624;48.126;11.546;2023-02-11T11:22:48;7.70;59.70
9179;DHT22;4624;48.126;11.546;2023-02-11T11:25:26;7.60;59.90
9179;DHT22;4624;48.126;11.546;2023-02-11T11:27:57;7.70;60.10
9179;DHT22;4624;48.126;11.546;2023-02-11T11:30:26;7.70;59.90
9179;DHT22;4624;48.126;11.546;2023-02-11T11:32:57;7.90;59.70
9179;DHT22;4624;48.126;11.546;2023-02-11T11:35:26;8.20;59.50
9179;DHT22;4624;48.126;11.546;2023-02-11T11:37:58;8.20;58.70
9179;DHT22;4624;48.126;11.546;2023-02-11T11:40:27;8.20;58.60
9179;DHT22;4624;48.126;11.546;2023-02-11T11:43:08;8.20;58.80
9179;DHT22;4624;48.126;11.546;2023-02-11T11:45:52;8.50;58.50
9179;DHT22;4624;48.126;11.546;2023-02-11T11:48:22;9.30;58.10
9179;DHT22;4624;48.126;11.546;2023-02-11T11:50:52;9.90;57.50
9179;DHT22;4624;48.126;11.546;2023-02-11T11:53:28;10.30;55.80
9179;DHT22;4624;48.126;11.546;2023-02-11T11:56:00;10.60;55.20
9179;DHT22;4624;48.126;11.546;2023-02-11T11:58:30;10.70;54.30
9179;DHT22;4624;48.126;11.546;2023-02-11T12:01:04;10.80;54.10
9179;DHT22;4624;48.126;11.546;2023-02-11T12:06:42;10.40;52.50
9179;DHT22;4624;48.126;11.546;2023-02-11T12:09:21;9.80;53.20
9179;DHT22;4624;48.126;11.546;2023-02-11T12:12:13;9.40;52.70
9179;DHT22;4624;48.126;11.546;2023-02-11T12:14:48;8.90;52.80
9179;DHT22;4624;48.126;11.546;2023-02-11T12:17:29;8.50;52.90
9179;DHT22;4624;48.126;11.546;2023-02-11T12:20:14;8.30;53.30
9179;DHT22;4624;48.126;11.546;2023-02-11T12:22:52;8.10;53.20
9179;DHT22;4624;48.126;11.546;2023-02-11T12:25:27;7.90;53.30
9179;DHT22;4624;48.126;11.546;2023-02-11T12:28:02;7.90;53.30
9179;DHT22;4624;48.126;11.546;2023-02-11T12:30:44;7.80;53.40
9179;DHT22;4624;48.126;11.546;2023-02-11T12:33:24;8.00;53.40
9179;DHT22;4624;48.126;11.546;2023-02-11T12:35:58;8.10;53.30
9179;DHT22;4624;48.126;11.546;2023-02-11T12:38:41;8.10;53.20
9179;DHT22;4624;48.126;11.546;2023-02-11T12:41:24;8.10;53.10
9179;DHT22;4624;48.126;11.546;2023-02-11T12:44:16;8.00;53.10
9179;DHT22;4624;48.126;11.546;2023-02-11T12:46:49;7.90;53.30
9179;DHT22;4624;48.126;11.546;2023-02-11T12:49:49;7.90;53.60
9179;DHT22;4624;48.126;11.546;2023-02-11T12:52:29;7.80;53.90
9179;DHT22;4624;48.126;11.546;2023-02-11T12:55:06;7.70;54.10
9179;DHT22;4624;48.126;11.546;2023-02-11T12:57:37;7.70;54.40
9179;DHT22;4624;48.126;11.546;2023-02-11T13:00:12;7.70;54.10
9179;DHT22;4624;48.126;11.546;2023-02-11T13:02:48;7.60;53.80
9179;DHT22;4624;48.126;11.546;2023-02-11T13:05:25;7.60;53.80
9179;DHT22;4624;48.126;11.546;2023-02-11T13:07:57;7.70;53.80
9179;DHT22;4624;48.126;11.546;2023-02-11T13:10:29;7.80;53.80
9179;DHT22;4624;48.126;11.546;2023-02-11T13:12:59;7.90;53.80
9179;DHT22;4624;48.126;11.546;2023-02-11T13:15:46;7.90;53.90
9179;DHT22;4624;48.126;11.546;2023-02-11T13:18:22;8.20;54.10
9179;DHT22;4624;48.126;11.546;2023-02-11T13:20:54;8.70;53.80
9179;DHT22;4624;48.126;11.546;2023-02-11T13:23:24;9.70;53.00
9179;DHT22;4624;48.126;11.546;2023-02-11T13:25:56;10.20;51.20
9179;DHT22;4624;48.126;11.546;2023-02-11T13:28:31;10.30;50.90
9179;DHT22;4624;48.126;11.546;2023-02-11T13:31:01;10.20;50.20
9179;DHT22;4624;48.126;11.546;2023-02-11T13:33:33;10.20;50.40
9179;DHT22;4624;48.126;11.546;2023-02-11T13:36:13;10.20;49.70
9179;DHT22;4624;48.126;11.546;2023-02-11T13:38:57;10.60;49.60
9179;DHT22;4624;48.126;11.546;2023-02-11T13:41:29;11.20;48.40
9179;DHT22;4624;48.126;11.546;2023-02-11T13:43:59;11.90;47.50
9179;DHT22;4624;48.126;11.546;2023-02-11T13:46:28;12.10;46.70
9179;DHT22;4624;48.126;11.546;2023-02-11T13:48:55;12.30;45.30
9179;DHT22;4624;48.126;11.546;2023-02-11T13:51:35;12.40;45.50
9179;DHT22;4624;48.126;11.546;2023-02-11T13:54:03;12.00;45.40
9179;DHT22;4624;48.126;11.546;2023-02-11T13:56:33;11.40;45.70
9179;DHT22;4624;48.126;11.546;2023-02-11T13:59:04;10.80;46.00
9179;DHT22;4624;48.126;11.546;2023-02-11T14:02:01;10.20;46.40
9179;DHT22;4624;48.126;11.546;2023-02-11T14:05:15;9.70;47.90
9179;DHT22;4624;48.126;11.546;2023-02-11T14:08:20;9.30;48.50
9179;DHT22;4624;48.126;11.546;2023-02-11T14:11:07;9.10;49.20
9179;DHT22;4624;48.126;11.546;2023-02-11T14:14:02;8.90;49.30
9179;DHT22;4624;48.126;11.546;2023-02-11T14:19:47;8.60;50.10
9179;DHT22;4624;48.126;11.546;2023-02-11T14:22:17;8.60;50.40
9179;DHT22;4624;48.126;11.546;2023-02-11T14:24:49;8.50;50.60
9179;DHT22;4624;48.126;11.546;2023-02-11T14:27:33;8.40;50.80
9179;DHT22;4624;48.126;11.546;2023-02-11T14:30:25;8.30;50.90
9179;DHT22;4624;48.126;11.546;2023-02-11T14:33:05;8.20;51.10
9179;DHT22;4624;48.126;11.546;2023-02-11T14:35:37;8.10;51.20
9179;DHT22;4624;48.126;11.546;2023-02-11T14:38:12;7.90;51.30
9179;DHT22;4624;48.126;11.546;2023-02-11T14:40:49;7.80;51.40
9179;DHT22;4624;48.126;11.546;2023-02-11T14:43:22;7.80;51.70
9179;DHT22;4624;48.126;11.546;2023-02-11T14:45:54;7.70;51.90
9179;DHT22;4624;48.126;11.546;2023-02-11T14:48:26;7.60;52.20
9179;DHT22;4624;48.126;11.546;2023-02-11T14:50:59;7.50;52.30
9179;DHT22;4624;48.126;11.546;2023-02-11T14:53:29;7.50;52.70
9179;DHT22;4624;48.126;11.546;2023-02-11T14:55:56;7.50;53.00
9179;DHT22;4624;48.126;11.546;2023-02-11T14:58:24;7.40;53.20
9179;DHT22;4624;48.126;11.546;2023-02-11T15:00:55;7.40;53.50
9179;DHT22;4624;48.126;11.546;2023-02-11T15:03:33;7.40;53.80
9179;DHT22;4624;48.126;11.546;2023-02-11T15:06:03;7.40;54.20
9179;DHT22;4624;48.126;11.546;2023-02-11T15:08:31;7.40;54.40
9179;DHT22;4624;48.126;11.546;2023-02-11T15:11:00;7.40;54.70
9179;DHT22;4624;48.126;11.546;2023-02-11T15:13:29;7.40;55.00
9179;DHT22;4624;48.126;11.546;2023-02-11T15:16:03;7.40;55.40
9179;DHT22;4624;48.126;11.546;2023-02-11T15:18:34;7.40;55.70
9179;DHT22;4624;48.126;11.546;2023-02-11T15:21:03;7.30;56.00
9179;DHT22;4624;48.126;11.546;2023-02-11T15:23:30;7.30;56.40
9179;DHT22;4624;48.126;11.546;2023-02-11T15:25:57;7.20;56.50
9179;DHT22;4624;48.126;11.546;2023-02-11T15:28:30;7.10;56.60
9179;DHT22;4624;48.126;11.546;2023-02-11T15:31:01;7.10;56.80
9179;DHT22;4624;48.126;11.546;2023-02-11T15:33:28;7.10;57.00
9179;DHT22;4624;48.126;11.546;2023-02-11T15:35:57;7.00;56.90
9179;DHT22;4624;48.126;11.546;2023-02-11T15:38:24;7.00;57.30
9179;DHT22;4624;48.126;11.546;2023-02-11T15:40:54;7.00;57.60
9179;DHT22;4624;48.126;11.546;2023-02-11T15:43:21;6.90;58.00
9179;DHT22;4624;48.126;11.546;2023-02-11T15:45:58;6.80;58.00
9179;DHT22;4624;48.126;11.546;2023-02-11T15:48:33;6.80;58.40
9179;DHT22;4624;48.126;11.546;2023-02-11T15:51:02;6.70;58.60
9179;DHT22;4624;48.126;11.546;2023-02-11T15:53:34;6.70;58.80
9179;DHT22;4624;48.126;11.546;2023-02-11T15:56:08;6.60;58.90
9179;DHT22;4624;48.126;11.546;2023-02-11T15:58:36;6.50;59.20
9179;DHT22;4624;48.126;11.546;2023-02-11T16:01:05;6.50;59.50
9179;DHT22;4624;48.126;11.546;2023-02-11T16:03:33;6.40;59.70
9179;DHT22;4624;48.126;11.546;2023-02-11T16:06:19;6.40;60.00
9179;DHT22;4624;48.126;11.546;2023-02-11T16:08:58;6.40;60.30
9179;DHT22;4624;48.126;11.546;2023-02-11T16:11:28;6.40;60.60
9179;DHT22;4624;48.126;11.546;2023-02-11T16:13:56;6.30;60.80
9179;DHT22;4624;48.126;11.546;2023-02-11T16:16:27;6.30;61.20
9179;DHT22;4624;48.126;11.546;2023-02-11T16:18:56;6.30;61.40
9179;DHT22;4624;48.126;11.546;2023-02-11T16:21:28;6.20;61.70
9179;DHT22;4624;48.126;11.546;2023-02-11T16:23:58;6.20;62.10
9179;DHT22;4624;48.126;11.546;2023-02-11T16:26:29;6.20;62.30
9179;DHT22;4624;48.126;11.546;2023-02-11T16:29:05;6.20;62.80
9179;DHT22;4624;48.126;11.546;2023-02-11T16:31:35;6.20;63.10